Coats, Kansas
Current Conditions -  °F | °C
As of 10:35 AM on Tuesday 27 Jan 2015 (Local Time) from KPTT Reporting Station
Clear Clear  
Wind Chill: 61°   Ceiling: Unl
Heat Index: 61°   Visibility: 10mi
Dew Point: 34°   Wind: 9mph
Humidity: 36%   Direction: 200°SSW
Pressure: 30.12"   Gusts: NA
Location:  37.51°N, 98.82°W
Report Text: KPTT 271635Z AUTO 20008KT 10SM CLR 16/01 A3012 RMK AO2
Loading
Personal Weather Stations






























Interactive Weather Map New forecast layout! Learn more

10-Day Weather Forecast

Advertisements
Track Severe Weather on mobile